Meteorología y climatología de Navarra
Datos de la estación - Meteo Navarra

Estación de Estella GN

Altitud 486 m.


Datos desde el 07/12/2018 hasta el 08/12/2018 en horario solar
Los datos son PROVISIONALES

Anterior Página 1 de 1 Siguiente Descargar: Formato para Excel 2000 o superior   Formato csv   Formato para OpenOffice Calc
Fecha Temperatura Humedad relativa Radiación global Insolación Precipitación Velocidad viento 10 m Velocidad viento 10 m Dirección viento 10 m
ºC % W/m² s l/m² m/s km/h º
07/12/2018 0:00 4.7 94 0.0 0 0.0 1.9 6.7 323
07/12/2018 0:10 4.4 95 0.0 0 0.0 2.1 7.4 330
07/12/2018 0:20 4.3 95 0.0 0 0.0 2.0 7.3 325
07/12/2018 0:30 4.1 95 0.0 0 0.0 1.9 6.8 328
07/12/2018 0:40 3.9 96 0.0 0 0.0 1.7 5.9 330
07/12/2018 0:50 4.6 96 0.0 0 0.0 1.8 6.6 1
07/12/2018 1:00 4.4 92 0.0 0 0.0 1.1 4.0 328
07/12/2018 1:10 3.7 95 0.0 0 0.0 1.8 6.6 322
07/12/2018 1:20 3.8 96 0.0 0 0.0 1.6 5.6 336
07/12/2018 1:30 3.9 96 0.0 0 0.0 1.3 4.8 339
07/12/2018 1:40 3.9 96 0.0 0 0.0 0.8 2.7 319
07/12/2018 1:50 3.7 96 0.0 0 0.0 0.7 2.5 334
07/12/2018 2:00 3.6 96 0.0 0 0.0 0.6 2.0 319
07/12/2018 2:10 3.5 97 0.0 0 0.0 1.5 5.3 331
07/12/2018 2:20 3.8 97 0.0 0 0.0 1.2 4.2 343
07/12/2018 2:30 3.8 97 0.0 0 0.0 1.2 4.2 340
07/12/2018 2:40 3.6 96 0.0 0 0.0 1.5 5.4 345
07/12/2018 2:50 3.7 97 0.0 0 0.0 2.0 7.2 352
07/12/2018 3:00 3.9 96 0.0 0 0.0 0.9 3.3 323
07/12/2018 3:10 3.4 96 0.0 0 0.0 1.2 4.5 306
07/12/2018 3:20 3.5 97 0.0 0 0.0 0.9 3.4 319
07/12/2018 3:30 3.4 96 0.0 0 0.0 0.6 2.2 337
07/12/2018 3:40 2.9 96 0.0 0 0.0 0.4 1.3 342
07/12/2018 3:50 3.2 97 0.0 0 0.0 1.1 4.1 333
07/12/2018 4:00 3.2 97 0.0 0 0.0 1.1 3.9 348
07/12/2018 4:10 3.2 97 0.0 0 0.0 1.2 4.2 341
07/12/2018 4:20 3.1 97 0.0 0 0.0 1.1 3.9 329
07/12/2018 4:30 2.9 97 0.0 0 0.0 1.3 4.8 332
07/12/2018 4:40 2.9 97 0.0 0 0.0 1.3 4.8 341
07/12/2018 4:50 2.9 97 0.0 0 0.0 1.4 5.0 337
07/12/2018 5:00 3.0 97 0.0 0 0.0 1.3 4.7 336
07/12/2018 5:10 2.2 95 0.0 0 0.0 0.5 1.7 334
07/12/2018 5:20 2.4 97 0.0 0 0.0 1.2 4.4 334
07/12/2018 5:30 2.2 97 0.0 0 0.0 1.2 4.4 338
07/12/2018 5:40 2.6 98 0.0 0 0.0 1.3 4.5 337
07/12/2018 5:50 2.7 97 0.0 0 0.0 1.2 4.4 324
07/12/2018 6:00 1.9 96 0.0 0 0.0 0.8 3.0 309
07/12/2018 6:10 1.4 96 0.0 0 0.0 1.5 5.4 321
07/12/2018 6:20 1.3 97 0.0 0 0.0 2.0 7.3 337
07/12/2018 6:30 1.7 98 0.0 0 0.0 1.7 6.1 353
07/12/2018 6:40 2.0 98 0.0 0 0.0 1.5 5.5 338
07/12/2018 6:50 2.1 98 0.0 0 0.0 1.5 5.3 346
07/12/2018 7:00 2.3 97 0.0 0 0.0 1.3 4.5 334
07/12/2018 7:10 1.8 96 0.0 0 0.0 1.9 6.9 346
07/12/2018 7:20 2.1 96 0.0 0 0.0 1.1 3.9 338
07/12/2018 7:30 1.7 95 0.0 0 0.0 1.8 6.4 335
07/12/2018 7:40 1.6 96 0.0 0 0.0 2.4 8.8 349
07/12/2018 7:50 1.9 97 0.8 0 0.0 1.5 5.4 332
07/12/2018 8:00 2.0 97 17.7 0 0.0 1.3 4.6 330
07/12/2018 8:10 2.4 96 26.5 28 0.0 2.1 7.7 356
07/12/2018 8:20 3.2 95 64.9 542 0.0 1.0 3.7 338
07/12/2018 8:30 3.7 92 74.2 344 0.0 1.7 6.0 331
07/12/2018 8:40 4.2 92 104.1 600 0.0 1.3 4.8 353
07/12/2018 8:50 4.7 88 165.5 600 0.0 1.4 5.0 330
07/12/2018 9:00 4.9 87 226.6 600 0.0 1.1 3.9 321
07/12/2018 9:10 5.3 85 276.7 600 0.0 1.0 3.6 331
07/12/2018 9:20 5.8 85 295.9 600 0.0 1.4 5.1 340
07/12/2018 9:30 6.2 81 286.4 600 0.0 1.5 5.5 336
07/12/2018 9:40 6.6 79 275.8 600 0.0 0.8 3.0 316
07/12/2018 9:50 6.6 79 275.3 600 0.0 1.0 3.5 234
07/12/2018 10:00 6.9 80 285.7 600 0.0 0.7 2.4 202
07/12/2018 10:10 7.3 77 293.1 600 0.0 1.1 3.9 296
07/12/2018 10:20 7.7 75 302.7 600 0.0 0.8 3.0 321
07/12/2018 10:30 8.3 73 315.8 600 0.0 0.8 2.7 227
07/12/2018 10:40 8.4 73 337.8 600 0.0 1.0 3.6 234
07/12/2018 10:50 8.9 70 364.8 600 0.0 1.3 4.5 235
07/12/2018 11:00 9.4 69 385.2 600 0.0 1.0 3.6 273
07/12/2018 11:10 9.6 68 399.1 600 0.0 0.8 2.8 276
07/12/2018 11:20 10.2 65 408.9 600 0.0 1.0 3.6 284
07/12/2018 11:30 10.3 64 417.0 600 0.0 0.8 2.8 268
07/12/2018 11:40 10.7 63 416.6 600 0.0 0.9 3.3 313
07/12/2018 11:50 11.2 62 423.7 600 0.0 0.9 3.3 256
07/12/2018 12:00 11.2 62 422.5 600 0.0 1.1 3.9 250
07/12/2018 12:10 11.8 60 417.3 600 0.0 0.9 3.1 229
07/12/2018 12:20 11.9 59 416.2 600 0.0 1.5 5.3 215
07/12/2018 12:30 12.0 61 411.0 600 0.0 1.3 4.6 212
07/12/2018 12:40 11.6 64 406.6 600 0.0 1.4 4.9 182
07/12/2018 12:50 12.0 62 400.6 600 0.0 0.7 2.4 207
07/12/2018 13:00 12.8 58 393.2 600 0.0 1.0 3.7 206
07/12/2018 13:10 13.4 56 390.5 600 0.0 0.9 3.2 244
07/12/2018 13:20 14.0 55 380.3 600 0.0 1.2 4.2 181
07/12/2018 13:30 14.0 54 360.8 600 0.0 1.5 5.4 215
07/12/2018 13:40 14.4 54 348.6 600 0.0 1.2 4.3 241
07/12/2018 13:50 14.5 53 345.3 600 0.0 1.5 5.5 236
07/12/2018 14:00 14.3 54 316.4 600 0.0 2.4 8.5 220
07/12/2018 14:10 14.5 54 298.4 600 0.0 2.6 9.3 254
07/12/2018 14:20 14.4 54 279.9 600 0.0 2.4 8.6 256
07/12/2018 14:30 14.5 53 260.2 600 0.0 2.5 8.9 245
07/12/2018 14:40 14.2 54 239.3 600 0.0 2.3 8.3 241
07/12/2018 14:50 14.0 55 219.8 600 0.0 2.1 7.7 244
07/12/2018 15:00 13.9 55 212.5 600 0.0 1.8 6.5 238
07/12/2018 15:10 14.3 55 237.7 600 0.0 1.6 5.7 247
07/12/2018 15:20 13.7 56 74.0 56 0.0 2.3 8.3 252
07/12/2018 15:30 12.7 60 39.3 0 0.0 1.9 6.8 264
07/12/2018 15:40 12.4 61 33.7 0 0.0 2.3 8.2 268
07/12/2018 15:50 12.2 62 32.3 0 0.0 2.3 8.1 260
07/12/2018 16:00 12.0 62 23.5 0 0.0 2.7 9.8 259
07/12/2018 16:10 11.8 64 10.1 0 0.0 2.6 9.4 258
07/12/2018 16:20 11.5 65 0.0 0 0.0 2.1 7.6 259
07/12/2018 16:30 11.4 66 0.0 0 0.0 2.2 7.9 261
07/12/2018 16:40 11.2 66 0.0 0 0.0 1.9 6.8 271
07/12/2018 16:50 10.9 67 0.0 0 0.0 2.0 7.1 262
07/12/2018 17:00 10.9 68 0.0 0 0.0 2.1 7.7 259
07/12/2018 17:10 10.8 68 0.0 0 0.0 1.7 6.0 256
07/12/2018 17:20 10.8 68 0.0 0 0.0 2.6 9.2 257
07/12/2018 17:30 10.9 67 0.0 0 0.0 2.4 8.6 260
07/12/2018 17:40 10.7 68 0.0 0 0.0 1.3 4.8 262
07/12/2018 17:50 10.4 69 0.0 0 0.0 1.8 6.5 286
07/12/2018 18:00 10.4 70 0.0 0 0.0 1.9 6.9 289
07/12/2018 18:10 10.5 70 0.0 0 0.0 1.5 5.4 276
07/12/2018 18:20 10.5 70 0.0 0 0.0 1.5 5.3 290
07/12/2018 18:30 10.4 71 0.0 0 0.0 0.8 2.7 309
07/12/2018 18:40 10.3 71 0.0 0 0.0 1.5 5.2 273
07/12/2018 18:50 10.4 71 0.0 0 0.0 2.3 8.1 259
07/12/2018 19:00 10.5 72 0.0 0 0.0 1.9 6.8 258
07/12/2018 19:10 10.5 72 0.0 0 0.0 2.0 7.3 265
07/12/2018 19:20 10.4 71 0.0 0 0.0 1.8 6.4 275
07/12/2018 19:30 10.3 73 0.0 0 0.0 1.7 6.0 283
07/12/2018 19:40 10.1 75 0.0 0 0.0 1.1 3.9 299
07/12/2018 19:50 9.9 77 0.0 0 0.0 1.2 4.3 300
07/12/2018 20:00 9.9 78 0.0 0 0.0 1.8 6.3 312
07/12/2018 20:10 10.2 77 0.0 0 0.0 1.6 5.7 313
07/12/2018 20:20 10.1 78 0.0 0 0.0 1.7 6.0 229
07/12/2018 20:30 9.9 80 0.0 0 0.0 1.2 4.2 227
07/12/2018 20:40 9.9 79 0.0 0 0.0 1.4 4.9 282
07/12/2018 20:50 10.1 76 0.0 0 0.0 1.7 5.9 314
07/12/2018 21:00 10.1 75 0.0 0 0.0 1.7 6.2 336
07/12/2018 21:10 10.1 74 0.0 0 0.0 1.8 6.5 331
07/12/2018 21:20 10.0 74 0.0 0 0.0 1.7 6.1 350
07/12/2018 21:30 10.0 74 0.0 0 0.0 2.3 8.3 345
07/12/2018 21:40 10.0 73 0.0 0 0.0 1.7 6.2 340
07/12/2018 21:50 9.9 74 0.0 0 0.0 2.1 7.7 353
07/12/2018 22:00 9.7 74 0.0 0 0.0 2.2 8.0 347
07/12/2018 22:10 9.6 75 0.0 0 0.0 1.9 6.8 350
07/12/2018 22:20 9.4 75 0.0 0 0.0 1.8 6.6 355
07/12/2018 22:30 9.3 75 0.0 0 0.0 1.7 6.3 357
07/12/2018 22:40 9.2 75 0.0 0 0.0 2.2 7.9 349
07/12/2018 22:50 9.0 75 0.0 0 0.0 1.8 6.5 358
07/12/2018 23:00 9.0 74 0.0 0 0.0 1.6 5.9 347
07/12/2018 23:10 8.9 74 0.0 0 0.0 2.0 7.3 291
07/12/2018 23:20 8.9 74 0.0 0 0.0 1.7 6.0 270
07/12/2018 23:30 9.0 73 0.0 0 0.0 2.0 7.1 292
07/12/2018 23:40 8.9 73 0.0 0 0.0 0.9 3.1 301
07/12/2018 23:50 8.8 74 0.0 0 0.0 0.7 2.6 319
Anterior Página 1 de 1 Siguiente

NOTA: Tipo de datos según el color:
   - Valores diarios o 10 minutos correctos
   - Valores diarios calculados a partir de un número de datos 10 minutos menor que 144 y mayor que 120, o de un número de datos semihorarios menor que 48 y mayor que 40 (caso de las estaciones de Riegos de Navarra y del MARM)
   - Valores diez minutos estimados


Contacto        Enlaces        Aviso legal